Frederick, Colorado
Current Conditions -  °F | °C
As of 10:35 AM on Thursday 23 Oct 2014 (Local Time) from KEIK Reporting Station
Clear Clear  
Wind Chill: 67°   Ceiling: Unl
Heat Index: 67°   Visibility: 10mi
Dew Point: 33°   Wind: 8mph
Humidity: 29%   Direction: 180°S
Pressure: 30.17"   Gusts: NA
Location:  40.1°N, 104.94°W
Report Text: KEIK 231635Z AUTO 18007KT 10SM CLR 20/01 A3017 RMK AO2 T01950007
Loading
Personal Weather Stations






























Interactive Weather Map
Tropical Storm Tracking
New forecast layout! Learn more

10-Day Weather Forecast

Advertisements
Track Severe Weather on mobile